Thursday, September 20, 2018, 6:59 PM EDT
Back to Local

KSNC, Chester, Chester Airport

Location: Chester, CT, United States Lat: 41.384
Local Time: 6:59 PM EDT (22:59 GMT) Lon: -72.506
Time Zone: US/Eastern Elev: 416 ft

Show me the last for .
Show Decoded

2018-09-20 18:35 METAR KSNC 202235Z AUTO 14004KT 10SM FEW037 OVC046 19/16 A3026 RMK AO2 =
2018-09-20 18:15 METAR KSNC 202215Z AUTO 14004KT 10SM SCT025 BKN037 OVC043 19/16 A3025 RMK AO2 =
2018-09-20 17:55 METAR KSNC 202155Z AUTO 17004KT 10SM FEW023 SCT034 OVC043 20/16 A3024 RMK AO2 =
2018-09-20 17:35 METAR KSNC 202135Z AUTO 16006KT 10SM FEW022 SCT027 BKN034 20/16 A3023 RMK AO2 =
2018-09-20 17:15 METAR KSNC 202115Z AUTO 20004KT 10SM OVC039 20/15 A3023 RMK AO2 =
2018-09-20 16:55 METAR KSNC 202055Z AUTO 00000KT 10SM BKN042 BKN049 21/13 A3023 RMK AO2 =
2018-09-20 16:35 METAR KSNC 202035Z AUTO 11003KT 10SM BKN046 21/13 A3022 RMK AO2 =
2018-09-20 16:15 METAR KSNC 202015Z AUTO 07005KT 10SM OVC047 22/13 A3022 RMK AO2 =
2018-09-20 15:55 METAR KSNC 201955Z AUTO VRB03KT 10SM FEW037 OVC046 22/13 A3023 RMK AO2 =
2018-09-20 15:35 METAR KSNC 201935Z AUTO VRB04KT 10SM BKN039 OVC048 23/13 A3022 RMK AO2 =
2018-09-20 15:15 METAR KSNC 201915Z AUTO 00000KT 10SM BKN048 24/12 A3022 RMK AO2 =
2018-09-20 14:55 METAR KSNC 201855Z AUTO 00000KT 10SM FEW037 BKN045 22/13 A3022 RMK AO2 =
2018-09-20 14:35 METAR KSNC 201835Z AUTO 04004KT 10SM BKN036 BKN045 23/13 A3023 RMK AO2 =
2018-09-20 14:15 METAR KSNC 201815Z AUTO 03005KT 10SM SCT035 BKN046 23/13 A3023 RMK AO2 =
2018-09-20 13:55 METAR KSNC 201755Z AUTO 00000KT 10SM SCT032 SCT041 BKN046 22/13 A3024 RMK AO2 =
2018-09-20 13:35 METAR KSNC 201735Z AUTO 07004KT 10SM SCT032 SCT040 SCT110 22/13 A3023 RMK AO2 =
2018-09-20 13:15 METAR KSNC 201715Z AUTO 05006KT 10SM SCT032 BKN039 22/13 A3024 RMK AO2 =
2018-09-20 12:55 METAR KSNC 201655Z AUTO 07005KT 9SM SCT031 SCT041 SCT110 21/13 A3025 RMK AO2 =
2018-09-20 12:35 METAR KSNC 201635Z AUTO 00000KT 10SM SCT029 SCT049 22/13 A3024 RMK AO2 =
2018-09-20 12:15 METAR KSNC 201615Z AUTO 02007KT 10SM FEW026 BKN049 21/13 A3025 RMK AO2 =
2018-09-20 11:55 METAR KSNC 201555Z AUTO VRB06G12KT 10SM BKN049 21/13 A3025 RMK AO2 =
2018-09-20 11:35 METAR KSNC 201535Z AUTO 05006KT 10SM BKN049 21/13 A3025 RMK AO2 =
2018-09-20 11:15 METAR KSNC 201515Z AUTO VRB04KT 10SM FEW034 BKN049 21/14 A3026 RMK AO2 =
2018-09-20 10:55 METAR KSNC 201455Z AUTO 05007KT 10SM FEW049 20/13 A3025 RMK AO2 =
2018-09-20 10:35 METAR KSNC 201435Z AUTO 04007KT 10SM FEW049 19/13 A3025 RMK AO2 =
2018-09-20 10:15 METAR KSNC 201415Z AUTO 02007KT 8SM CLR 19/13 A3024 RMK AO2 =
2018-09-20 09:55 METAR KSNC 201355Z AUTO 06008KT 10SM CLR 19/13 A3022 RMK AO2 =
2018-09-20 09:35 METAR KSNC 201335Z AUTO 04007KT 10SM CLR 19/13 A3022 RMK AO2 =
2018-09-20 09:15 METAR KSNC 201315Z AUTO 04006KT 10SM SCT049 19/13 A3023 RMK AO2 =
2018-09-20 08:55 METAR KSNC 201255Z AUTO 02008KT 10SM BKN049 18/13 A3021 RMK AO2 =
2018-09-20 08:35 METAR KSNC 201235Z AUTO 04009KT 010V070 10SM BKN049 17/13 A3021 RMK AO2 =
2018-09-20 08:15 METAR KSNC 201215Z AUTO 04009KT 10SM BKN050 18/13 A3020 RMK AO2 =
2018-09-20 07:55 METAR KSNC 201155Z AUTO 03009KT 10SM BKN050 17/13 A3019 RMK AO2 =
2018-09-20 07:35 METAR KSNC 201135Z AUTO 03006KT 10SM OVC050 17/13 A3018 RMK AO2 =
2018-09-20 07:15 METAR KSNC 201115Z AUTO 04005KT 10SM OVC050 16/13 A3018 RMK AO2 =
2018-09-20 06:55 METAR KSNC 201055Z AUTO 03005KT 10SM OVC050 15/13 A3017 RMK AO2 =
2018-09-20 06:35 METAR KSNC 201035Z AUTO 03005KT 10SM BKN050 15/13 A3016 RMK AO2 =
2018-09-20 06:15 METAR KSNC 201015Z AUTO 02004KT 10SM FEW036 SCT050 14/13 A3016 RMK AO2 =
2018-09-20 05:55 METAR KSNC 200955Z AUTO 02003KT 10SM BKN036 14/13 A3016 RMK AO2 =
2018-09-20 05:35 METAR KSNC 200935Z AUTO 36004KT 10SM FEW035 SCT050 14/13 A3014 RMK AO2 =
2018-09-20 05:15 METAR KSNC 200915Z AUTO 35005KT 10SM FEW050 14/13 A3014 RMK AO2 =
2018-09-20 04:55 METAR KSNC 200855Z AUTO 03005KT 10SM SCT055 14/13 A3012 RMK AO2 =
2018-09-20 04:35 METAR KSNC 200835Z AUTO 04004KT 10SM BKN055 15/13 A3012 RMK AO2 =
2018-09-20 04:15 METAR KSNC 200815Z AUTO 03005KT 10SM OVC055 15/13 A3012 RMK AO2 =
2018-09-20 03:55 METAR KSNC 200755Z AUTO 02005KT 10SM OVC055 15/13 A3012 RMK AO2 =
2018-09-20 03:35 METAR KSNC 200735Z AUTO 02004KT 10SM BKN055 15/13 A3012 RMK AO2 =
2018-09-20 03:15 METAR KSNC 200715Z AUTO 01005KT 10SM CLR 14/13 A3012 RMK AO2 =
2018-09-20 02:55 METAR KSNC 200655Z AUTO 36004KT 10SM CLR 14/13 A3012 RMK AO2 =
2018-09-20 02:35 METAR KSNC 200635Z AUTO 03004KT 10SM CLR 14/13 A3011 RMK AO2 =
2018-09-20 02:15 METAR KSNC 200615Z AUTO 03004KT 10SM FEW035 15/13 A3011 RMK AO2 =
2018-09-20 01:55 METAR KSNC 200555Z AUTO 00000KT 10SM CLR 15/13 A3011 RMK AO2 =
2018-09-20 01:35 METAR KSNC 200535Z AUTO 05005KT 10SM CLR 15/13 A3011 RMK AO2 =
2018-09-20 01:15 METAR KSNC 200515Z AUTO 05005KT 10SM CLR 15/13 A3011 RMK AO2 =
2018-09-20 00:55 METAR KSNC 200455Z AUTO 03004KT 10SM CLR 15/13 A3011 RMK AO2 =
2018-09-20 00:35 METAR KSNC 200435Z AUTO 04005KT 10SM CLR 15/13 A3010 RMK AO2 =
2018-09-20 00:15 METAR KSNC 200415Z AUTO 04006KT 10SM FEW036 SCT050 15/14 A3011 RMK AO2 =
2018-09-19 23:55 METAR KSNC 200355Z AUTO 05004KT 10SM OVC035 16/14 A3010 RMK AO2 =
2018-09-19 23:35 METAR KSNC 200335Z AUTO 03005KT 10SM FEW017 BKN031 BKN038 16/14 A3010 RMK AO2 =
2018-09-19 23:15 METAR KSNC 200315Z AUTO 05005KT 10SM BKN031 BKN037 OVC050 16/14 A3009 RMK AO2 =
2018-09-19 22:55 METAR KSNC 200255Z AUTO 04004KT 10SM BKN031 OVC050 17/14 A3009 RMK AO2 =
2018-09-19 22:35 METAR KSNC 200235Z AUTO 05005KT 10SM FEW013 OVC030 17/14 A3009 RMK AO2 =
2018-09-19 22:15 METAR KSNC 200215Z AUTO 04007KT 10SM FEW013 OVC029 17/14 A3008 RMK AO2 =
2018-09-19 21:55 METAR KSNC 200155Z AUTO 06004G11KT 10SM FEW013 FEW018 BKN029 17/14 A3007 RMK AO2
                 =

Support USWX by starting your Amazon purchase here.